sensor_id;sensor_type;location;lat;lon;timestamp;pressure;altitude;pressure_sealevel;temperature;humidity
56630;BME280;42502;40.732;-74.254;2023-01-01T00:00:10;100090.47;;;19.63;38.44
56630;BME280;42502;40.732;-74.254;2023-01-01T00:02:11;100085.75;;;19.67;38.35
56630;BME280;42502;40.732;-74.254;2023-01-01T00:04:18;100075.97;;;19.61;38.13
56630;BME280;42502;40.732;-74.254;2023-01-01T00:06:19;100093.78;;;19.69;38.21
56630;BME280;42502;40.732;-74.254;2023-01-01T00:08:23;100092.97;;;19.68;38.21
56630;BME280;42502;40.732;-74.254;2023-01-01T00:10:24;100076.91;;;19.65;38.11
56630;BME280;42502;40.732;-74.254;2023-01-01T00:12:28;100083.31;;;19.66;38.17
56630;BME280;42502;40.732;-74.254;2023-01-01T00:14:28;100078.41;;;19.63;38.05
56630;BME280;42502;40.732;-74.254;2023-01-01T00:16:29;100084.56;;;19.68;38.14
56630;BME280;42502;40.732;-74.254;2023-01-01T00:18:30;100082.56;;;19.69;38.36
56630;BME280;42502;40.732;-74.254;2023-01-01T00:20:34;100090.19;;;19.68;38.19
56630;BME280;42502;40.732;-74.254;2023-01-01T00:22:34;100083.78;;;19.68;38.14
56630;BME280;42502;40.732;-74.254;2023-01-01T00:24:35;100080.13;;;19.67;38.18
56630;BME280;42502;40.732;-74.254;2023-01-01T00:26:36;100070.84;;;19.63;38.46
56630;BME280;42502;40.732;-74.254;2023-01-01T00:28:38;100069.75;;;19.68;38.39
56630;BME280;42502;40.732;-74.254;2023-01-01T00:30:39;100041.38;;;19.53;38.44
56630;BME280;42502;40.732;-74.254;2023-01-01T00:32:43;100059.72;;;19.67;38.44
56630;BME280;42502;40.732;-74.254;2023-01-01T00:34:45;100062.53;;;19.67;38.48
56630;BME280;42502;40.732;-74.254;2023-01-01T00:36:45;100057.72;;;19.67;38.32
56630;BME280;42502;40.732;-74.254;2023-01-01T00:38:46;100047.25;;;19.64;38.56
56630;BME280;42502;40.732;-74.254;2023-01-01T00:40:47;100048.94;;;19.69;38.36
56630;BME280;42502;40.732;-74.254;2023-01-01T00:42:48;100043.19;;;19.62;38.13
56630;BME280;42502;40.732;-74.254;2023-01-01T00:44:49;100045.72;;;19.67;38.17
56630;BME280;42502;40.732;-74.254;2023-01-01T00:46:50;100040.09;;;19.67;38.61
56630;BME280;42502;40.732;-74.254;2023-01-01T00:48:53;100041.75;;;19.68;38.50
56630;BME280;42502;40.732;-74.254;2023-01-01T00:50:54;100030.91;;;19.66;38.57
56630;BME280;42502;40.732;-74.254;2023-01-01T00:52:55;100030.53;;;19.68;38.75
56630;BME280;42502;40.732;-74.254;2023-01-01T00:54:56;100013.59;;;19.64;38.31
56630;BME280;42502;40.732;-74.254;2023-01-01T00:56:56;100014.88;;;19.67;38.43
56630;BME280;42502;40.732;-74.254;2023-01-01T00:58:57;100009.28;;;19.67;38.63
56630;BME280;42502;40.732;-74.254;2023-01-01T01:00:58;99998.38;;;19.62;38.43
56630;BME280;42502;40.732;-74.254;2023-01-01T01:02:59;100007.28;;;19.67;38.44
56630;BME280;42502;40.732;-74.254;2023-01-01T01:05:00;100003.25;;;19.65;38.31
56630;BME280;42502;40.732;-74.254;2023-01-01T01:07:03;99987.97;;;19.62;38.41
56630;BME280;42502;40.732;-74.254;2023-01-01T01:09:03;99972.84;;;19.67;38.52
56630;BME280;42502;40.732;-74.254;2023-01-01T01:11:27;99973.66;;;19.67;38.51
56630;BME280;42502;40.732;-74.254;2023-01-01T01:13:27;99970.06;;;19.67;38.22
56630;BME280;42502;40.732;-74.254;2023-01-01T01:15:28;99974.84;;;19.66;38.58
56630;BME280;42502;40.732;-74.254;2023-01-01T01:17:29;99954.25;;;19.59;38.47
56630;BME280;42502;40.732;-74.254;2023-01-01T01:19:30;99966.44;;;19.66;38.58
56630;BME280;42502;40.732;-74.254;2023-01-01T01:21:33;99955.25;;;19.66;38.26
56630;BME280;42502;40.732;-74.254;2023-01-01T01:23:34;99952.44;;;19.66;38.65
56630;BME280;42502;40.732;-74.254;2023-01-01T01:25:35;99935.16;;;19.64;38.46
56630;BME280;42502;40.732;-74.254;2023-01-01T01:27:36;99920.63;;;19.59;38.53
56630;BME280;42502;40.732;-74.254;2023-01-01T01:29:37;99931.19;;;19.65;38.45
56630;BME280;42502;40.732;-74.254;2023-01-01T01:31:38;99911.41;;;19.58;38.69
56630;BME280;42502;40.732;-74.254;2023-01-01T01:33:42;99929.56;;;19.64;38.51
56630;BME280;42502;40.732;-74.254;2023-01-01T01:35:49;99929.56;;;19.64;38.50
56630;BME280;42502;40.732;-74.254;2023-01-01T01:37:51;99919.97;;;19.65;38.48
56630;BME280;42502;40.732;-74.254;2023-01-01T01:39:55;99911.13;;;19.63;38.39
56630;BME280;42502;40.732;-74.254;2023-01-01T01:41:59;99902.38;;;19.65;38.48
56630;BME280;42502;40.732;-74.254;2023-01-01T01:44:48;99907.13;;;19.64;38.48
56630;BME280;42502;40.732;-74.254;2023-01-01T01:46:40;99921.97;;;19.65;38.60
56630;BME280;42502;40.732;-74.254;2023-01-01T01:48:48;99930.66;;;19.60;38.44
56630;BME280;42502;40.732;-74.254;2023-01-01T01:50:50;99932.66;;;19.59;38.54
56630;BME280;42502;40.732;-74.254;2023-01-01T01:53:06;99941.59;;;19.65;38.41
56630;BME280;42502;40.732;-74.254;2023-01-01T01:55:12;99948.00;;;19.65;38.51
56630;BME280;42502;40.732;-74.254;2023-01-01T01:57:13;99935.16;;;19.64;38.54
56630;BME280;42502;40.732;-74.254;2023-01-01T01:59:16;99922.34;;;19.63;38.46
56630;BME280;42502;40.732;-74.254;2023-01-01T02:01:18;99932.72;;;19.63;38.45
56630;BME280;42502;40.732;-74.254;2023-01-01T02:03:23;99931.56;;;19.64;38.45
56630;BME280;42502;40.732;-74.254;2023-01-01T02:05:26;99939.16;;;19.63;38.49
56630;BME280;42502;40.732;-74.254;2023-01-01T02:07:30;99940.75;;;19.64;38.37
56630;BME280;42502;40.732;-74.254;2023-01-01T02:09:33;99949.47;;;19.59;38.45
56630;BME280;42502;40.732;-74.254;2023-01-01T02:11:34;99943.84;;;19.59;38.23
56630;BME280;42502;40.732;-74.254;2023-01-01T02:13:38;99959.94;;;19.62;38.44
56630;BME280;42502;40.732;-74.254;2023-01-01T02:21:24;99971.06;;;19.59;38.37
56630;BME280;42502;40.732;-74.254;2023-01-01T02:31:13;99947.47;;;19.60;38.34
56630;BME280;42502;40.732;-74.254;2023-01-01T02:33:20;99938.31;;;19.63;38.29
56630;BME280;42502;40.732;-74.254;2023-01-01T02:35:28;99935.88;;;19.61;38.54
56630;BME280;42502;40.732;-74.254;2023-01-01T02:37:38;99940.31;;;19.62;38.44
56630;BME280;42502;40.732;-74.254;2023-01-01T02:39:46;99929.41;;;19.57;38.33
56630;BME280;42502;40.732;-74.254;2023-01-01T02:41:52;99915.09;;;19.62;38.20
56630;BME280;42502;40.732;-74.254;2023-01-01T02:43:54;99896.97;;;19.56;38.33
56630;BME280;42502;40.732;-74.254;2023-01-01T02:45:55;99885.75;;;19.56;38.41
56630;BME280;42502;40.732;-74.254;2023-01-01T02:47:56;99878.97;;;19.57;38.56
56630;BME280;42502;40.732;-74.254;2023-01-01T02:50:02;99883.84;;;19.60;38.21
56630;BME280;42502;40.732;-74.254;2023-01-01T02:52:14;99866.16;;;19.56;38.57
56630;BME280;42502;40.732;-74.254;2023-01-01T02:56:37;99857.38;;;19.58;38.42
56630;BME280;42502;40.732;-74.254;2023-01-01T03:03:32;99859.00;;;19.59;38.56
56630;BME280;42502;40.732;-74.254;2023-01-01T03:08:30;99820.22;;;19.61;38.40
56630;BME280;42502;40.732;-74.254;2023-01-01T03:12:54;99780.84;;;19.53;38.57
56630;BME280;42502;40.732;-74.254;2023-01-01T03:15:03;99783.72;;;19.57;38.45
56630;BME280;42502;40.732;-74.254;2023-01-01T03:17:23;99803.78;;;19.59;38.39
56630;BME280;42502;40.732;-74.254;2023-01-01T03:19:29;99797.38;;;19.59;38.37
56630;BME280;42502;40.732;-74.254;2023-01-01T03:21:52;99786.97;;;19.59;38.61
56630;BME280;42502;40.732;-74.254;2023-01-01T03:23:55;99766.53;;;19.59;38.40
56630;BME280;42502;40.732;-74.254;2023-01-01T03:25:59;99765.22;;;19.52;38.56
56630;BME280;42502;40.732;-74.254;2023-01-01T03:28:06;99780.19;;;19.60;38.68
56630;BME280;42502;40.732;-74.254;2023-01-01T03:30:10;99825.28;;;19.55;38.47
56630;BME280;42502;40.732;-74.254;2023-01-01T03:32:22;99840.50;;;19.54;38.46
56630;BME280;42502;40.732;-74.254;2023-01-01T03:34:53;99846.59;;;19.60;38.47
56630;BME280;42502;40.732;-74.254;2023-01-01T03:36:59;99841.47;;;19.62;38.42
56630;BME280;42502;40.732;-74.254;2023-01-01T03:39:29;99850.97;;;19.57;38.43
56630;BME280;42502;40.732;-74.254;2023-01-01T03:44:02;99848.59;;;19.59;38.38
56630;BME280;42502;40.732;-74.254;2023-01-01T03:46:07;99826.91;;;19.56;38.47
56630;BME280;42502;40.732;-74.254;2023-01-01T03:48:10;99829.34;;;19.58;38.25
56630;BME280;42502;40.732;-74.254;2023-01-01T03:50:13;99839.03;;;19.60;38.35
56630;BME280;42502;40.732;-74.254;2023-01-01T03:55:09;99852.13;;;19.56;38.47
56630;BME280;42502;40.732;-74.254;2023-01-01T03:57:20;99849.03;;;19.61;38.46
56630;BME280;42502;40.732;-74.254;2023-01-01T03:59:28;99850.66;;;19.62;38.46
56630;BME280;42502;40.732;-74.254;2023-01-01T04:01:36;99858.53;;;19.57;38.58
56630;BME280;42502;40.732;-74.254;2023-01-01T04:03:43;99855.75;;;19.57;38.49
56630;BME280;42502;40.732;-74.254;2023-01-01T04:05:44;99848.97;;;19.58;38.55
56630;BME280;42502;40.732;-74.254;2023-01-01T04:07:45;99873.44;;;19.61;38.43
56630;BME280;42502;40.732;-74.254;2023-01-01T04:09:49;99879.78;;;19.58;38.62
56630;BME280;42502;40.732;-74.254;2023-01-01T04:11:51;99874.13;;;19.54;38.67
56630;BME280;42502;40.732;-74.254;2023-01-01T04:14:02;99864.59;;;19.59;38.49
56630;BME280;42502;40.732;-74.254;2023-01-01T04:16:03;99874.19;;;19.58;38.50
56630;BME280;42502;40.732;-74.254;2023-01-01T04:18:04;99870.56;;;19.57;38.57
56630;BME280;42502;40.732;-74.254;2023-01-01T04:20:05;99859.00;;;19.59;38.62
56630;BME280;42502;40.732;-74.254;2023-01-01T04:22:07;99848.00;;;19.50;38.52
56630;BME280;42502;40.732;-74.254;2023-01-01T04:24:08;99858.91;;;19.55;38.61
56630;BME280;42502;40.732;-74.254;2023-01-01T04:26:15;99857.22;;;19.50;38.64
56630;BME280;42502;40.732;-74.254;2023-01-01T04:28:16;99860.97;;;19.58;38.58
56630;BME280;42502;40.732;-74.254;2023-01-01T04:30:17;99848.97;;;19.58;38.91
56630;BME280;42502;40.732;-74.254;2023-01-01T04:32:18;99835.75;;;19.58;38.68
56630;BME280;42502;40.732;-74.254;2023-01-01T04:34:19;99806.94;;;19.58;38.48
56630;BME280;42502;40.732;-74.254;2023-01-01T04:36:23;99792.13;;;19.57;38.61
56630;BME280;42502;40.732;-74.254;2023-01-01T04:38:23;99774.81;;;19.51;38.45
56630;BME280;42502;40.732;-74.254;2023-01-01T04:40:27;99774.84;;;19.55;38.64
56630;BME280;42502;40.732;-74.254;2023-01-01T04:42:28;99762.91;;;19.58;38.47
56630;BME280;42502;40.732;-74.254;2023-01-01T04:44:29;99738.44;;;19.55;38.51
56630;BME280;42502;40.732;-74.254;2023-01-01T04:46:29;99736.09;;;19.57;38.70
56630;BME280;42502;40.732;-74.254;2023-01-01T04:48:31;99726.81;;;19.53;38.58
56630;BME280;42502;40.732;-74.254;2023-01-01T04:50:32;99721.25;;;19.57;38.54
56630;BME280;42502;40.732;-74.254;2023-01-01T04:52:33;99673.59;;;19.53;38.40
56630;BME280;42502;40.732;-74.254;2023-01-01T04:54:33;99675.63;;;19.56;38.45
56630;BME280;42502;40.732;-74.254;2023-01-01T04:56:34;99671.59;;;19.53;38.58
56630;BME280;42502;40.732;-74.254;2023-01-01T04:58:36;99686.84;;;19.56;38.48
56630;BME280;42502;40.732;-74.254;2023-01-01T05:00:38;99687.66;;;19.57;38.61
56630;BME280;42502;40.732;-74.254;2023-01-01T05:02:39;99702.84;;;19.56;38.48
56630;BME280;42502;40.732;-74.254;2023-01-01T05:04:39;99737.63;;;19.55;38.47
56630;BME280;42502;40.732;-74.254;2023-01-01T05:06:41;99748.47;;;19.56;38.58
56630;BME280;42502;40.732;-74.254;2023-01-01T05:08:44;99748.47;;;19.56;38.55
56630;BME280;42502;40.732;-74.254;2023-01-01T05:10:45;99727.25;;;19.55;38.41
56630;BME280;42502;40.732;-74.254;2023-01-01T05:12:46;99732.41;;;19.53;38.46
56630;BME280;42502;40.732;-74.254;2023-01-01T05:14:47;99767.66;;;19.54;38.49
56630;BME280;42502;40.732;-74.254;2023-01-01T05:16:47;99789.69;;;19.56;38.50
56630;BME280;42502;40.732;-74.254;2023-01-01T05:18:49;99799.72;;;19.57;38.53
56630;BME280;42502;40.732;-74.254;2023-01-01T05:20:50;99790.78;;;19.51;38.58
56630;BME280;42502;40.732;-74.254;2023-01-01T05:22:51;99789.25;;;19.53;38.36
56630;BME280;42502;40.732;-74.254;2023-01-01T05:24:55;99784.91;;;19.56;38.54
56630;BME280;42502;40.732;-74.254;2023-01-01T05:26:55;99793.31;;;19.56;38.46
56630;BME280;42502;40.732;-74.254;2023-01-01T05:28:58;99802.88;;;19.55;38.36
56630;BME280;42502;40.732;-74.254;2023-01-01T05:31:07;99802.88;;;19.55;38.64
56630;BME280;42502;40.732;-74.254;2023-01-01T05:33:08;99800.06;;;19.55;38.56
56630;BME280;42502;40.732;-74.254;2023-01-01T05:35:09;99799.66;;;19.53;38.34
56630;BME280;42502;40.732;-74.254;2023-01-01T05:37:10;99802.88;;;19.55;38.32
56630;BME280;42502;40.732;-74.254;2023-01-01T05:39:13;99807.69;;;19.55;38.53
56630;BME280;42502;40.732;-74.254;2023-01-01T05:41:15;99795.66;;;19.54;38.43
56630;BME280;42502;40.732;-74.254;2023-01-01T05:43:16;99782.84;;;19.53;38.22
56630;BME280;42502;40.732;-74.254;2023-01-01T05:45:17;99780.84;;;19.53;38.34
56630;BME280;42502;40.732;-74.254;2023-01-01T05:47:21;99786.38;;;19.50;38.35
56630;BME280;42502;40.732;-74.254;2023-01-01T05:49:22;99783.56;;;19.50;38.49
56630;BME280;42502;40.732;-74.254;2023-01-01T05:51:25;99785.63;;;19.53;38.46
56630;BME280;42502;40.732;-74.254;2023-01-01T05:53:27;99770.81;;;19.52;38.45
56630;BME280;42502;40.732;-74.254;2023-01-01T05:55:28;99762.44;;;19.52;38.41
56630;BME280;42502;40.732;-74.254;2023-01-01T05:57:30;99747.59;;;19.52;38.37
56630;BME280;42502;40.732;-74.254;2023-01-01T05:59:31;99744.34;;;19.50;38.56
56630;BME280;42502;40.732;-74.254;2023-01-01T06:01:32;99725.50;;;19.47;38.40
56630;BME280;42502;40.732;-74.254;2023-01-01T06:03:34;99723.91;;;19.49;38.38
56630;BME280;42502;40.732;-74.254;2023-01-01T06:05:35;99725.19;;;19.52;38.43
56630;BME280;42502;40.732;-74.254;2023-01-01T06:07:36;99724.75;;;19.50;38.43
56630;BME280;42502;40.732;-74.254;2023-01-01T06:09:37;99711.03;;;19.45;38.51
56630;BME280;42502;40.732;-74.254;2023-01-01T06:11:40;99726.34;;;19.51;38.46
56630;BME280;42502;40.732;-74.254;2023-01-01T06:13:41;99738.38;;;19.51;38.46
56630;BME280;42502;40.732;-74.254;2023-01-01T06:15:42;99726.72;;;19.49;38.24
56630;BME280;42502;40.732;-74.254;2023-01-01T06:17:43;99717.13;;;19.50;38.58
56630;BME280;42502;40.732;-74.254;2023-01-01T06:19:44;99712.34;;;19.51;38.21
56630;BME280;42502;40.732;-74.254;2023-01-01T06:21:45;99707.84;;;19.46;38.52
56630;BME280;42502;40.732;-74.254;2023-01-01T06:23:46;99698.69;;;19.49;38.44
56630;BME280;42502;40.732;-74.254;2023-01-01T06:25:47;99713.09;;;19.48;38.40
56630;BME280;42502;40.732;-74.254;2023-01-01T06:27:51;99724.75;;;19.50;38.54
56630;BME280;42502;40.732;-74.254;2023-01-01T06:29:51;99719.88;;;19.47;38.28
56630;BME280;42502;40.732;-74.254;2023-01-01T06:31:52;99730.34;;;19.50;38.50
56630;BME280;42502;40.732;-74.254;2023-01-01T06:33:53;99739.50;;;19.47;38.57
56630;BME280;42502;40.732;-74.254;2023-01-01T06:35:54;99741.56;;;19.50;38.42
56630;BME280;42502;40.732;-74.254;2023-01-01T06:37:58;99752.28;;;19.48;38.27
56630;BME280;42502;40.732;-74.254;2023-01-01T06:39:59;99746.19;;;19.42;38.21
56630;BME280;42502;40.732;-74.254;2023-01-01T06:42:00;99762.34;;;19.49;38.60
56630;BME280;42502;40.732;-74.254;2023-01-01T06:44:01;99748.63;;;19.44;38.50
56630;BME280;42502;40.732;-74.254;2023-01-01T06:46:23;99765.50;;;19.47;38.55
56630;BME280;42502;40.732;-74.254;2023-01-01T06:48:24;99765.06;;;19.45;38.44
56630;BME280;42502;40.732;-74.254;2023-01-01T06:50:27;99770.75;;;19.49;38.43
56630;BME280;42502;40.732;-74.254;2023-01-01T06:52:28;99771.09;;;19.47;38.53
56630;BME280;42502;40.732;-74.254;2023-01-01T06:54:32;99771.47;;;19.46;38.37
56630;BME280;42502;40.732;-74.254;2023-01-01T06:56:34;99773.91;;;19.47;38.31
56630;BME280;42502;40.732;-74.254;2023-01-01T06:58:35;99773.84;;;19.44;38.55
56630;BME280;42502;40.732;-74.254;2023-01-01T07:00:39;99777.06;;;19.46;38.40
56630;BME280;42502;40.732;-74.254;2023-01-01T07:02:39;99783.47;;;19.46;38.54
56630;BME280;42502;40.732;-74.254;2023-01-01T07:04:40;99779.34;;;19.40;38.42
56630;BME280;42502;40.732;-74.254;2023-01-01T07:06:41;99792.25;;;19.45;38.38
56630;BME280;42502;40.732;-74.254;2023-01-01T07:08:42;99792.63;;;19.43;38.42
56630;BME280;42502;40.732;-74.254;2023-01-01T07:10:43;99803.44;;;19.45;38.34
56630;BME280;42502;40.732;-74.254;2023-01-01T07:12:44;99795.06;;;19.45;38.34
56630;BME280;42502;40.732;-74.254;2023-01-01T07:14:45;99797.06;;;19.44;38.49
56630;BME280;42502;40.732;-74.254;2023-01-01T07:16:46;99792.19;;;19.41;38.18
56630;BME280;42502;40.732;-74.254;2023-01-01T07:18:50;99806.19;;;19.41;38.57
56630;BME280;42502;40.732;-74.254;2023-01-01T07:20:55;99813.06;;;19.44;38.35
56630;BME280;42502;40.732;-74.254;2023-01-01T07:23:00;99804.94;;;19.39;38.62
56630;BME280;42502;40.732;-74.254;2023-01-01T07:25:04;99814.66;;;19.45;38.37
56630;BME280;42502;40.732;-74.254;2023-01-01T07:27:05;99812.16;;;19.40;38.24
56630;BME280;42502;40.732;-74.254;2023-01-01T07:29:11;99828.22;;;19.43;38.25
56630;BME280;42502;40.732;-74.254;2023-01-01T07:31:12;99835.47;;;19.44;38.32
56630;BME280;42502;40.732;-74.254;2023-01-01T07:33:18;99831.03;;;19.43;38.52
56630;BME280;42502;40.732;-74.254;2023-01-01T07:35:25;99830.22;;;19.42;38.31
56630;BME280;42502;40.732;-74.254;2023-01-01T07:37:26;99835.47;;;19.44;38.38
56630;BME280;42502;40.732;-74.254;2023-01-01T07:39:26;99836.63;;;19.43;38.48
56630;BME280;42502;40.732;-74.254;2023-01-01T07:41:27;99823.28;;;19.36;38.35
56630;BME280;42502;40.732;-74.254;2023-01-01T07:43:31;99829.69;;;19.37;38.32
56630;BME280;42502;40.732;-74.254;2023-01-01T07:45:32;99837.00;;;19.41;38.26
56630;BME280;42502;40.732;-74.254;2023-01-01T07:47:34;99826.47;;;19.34;38.29
56630;BME280;42502;40.732;-74.254;2023-01-01T07:49:34;99840.16;;;19.40;38.37
56630;BME280;42502;40.732;-74.254;2023-01-01T07:51:35;99844.13;;;19.39;38.31
56630;BME280;42502;40.732;-74.254;2023-01-01T07:53:36;99839.72;;;19.38;38.42
56630;BME280;42502;40.732;-74.254;2023-01-01T07:55:37;99841.34;;;19.39;38.37
56630;BME280;42502;40.732;-74.254;2023-01-01T07:57:38;99850.56;;;19.39;38.36
56630;BME280;42502;40.732;-74.254;2023-01-01T07:59:39;99844.97;;;19.39;38.25
56630;BME280;42502;40.732;-74.254;2023-01-01T08:01:40;99849.75;;;19.39;38.30
56630;BME280;42502;40.732;-74.254;2023-01-01T08:03:41;99830.56;;;19.21;38.22
56630;BME280;42502;40.732;-74.254;2023-01-01T08:05:42;99853.75;;;19.38;38.40
56630;BME280;42502;40.732;-74.254;2023-01-01T08:07:49;99860.50;;;19.37;38.42
56630;BME280;42502;40.732;-74.254;2023-01-01T08:09:50;99851.31;;;19.36;38.28
56630;BME280;42502;40.732;-74.254;2023-01-01T08:11:51;99852.84;;;19.33;38.44
56630;BME280;42502;40.732;-74.254;2023-01-01T08:13:53;99850.09;;;19.37;38.34
56630;BME280;42502;40.732;-74.254;2023-01-01T08:15:54;99850.09;;;19.37;38.21
56630;BME280;42502;40.732;-74.254;2023-01-01T08:18:04;99858.44;;;19.33;38.20
56630;BME280;42502;40.732;-74.254;2023-01-01T08:20:06;99858.88;;;19.35;38.37
56630;BME280;42502;40.732;-74.254;2023-01-01T08:22:07;99853.63;;;19.34;38.30
56630;BME280;42502;40.732;-74.254;2023-01-01T08:24:08;99864.47;;;19.35;38.24
56630;BME280;42502;40.732;-74.254;2023-01-01T08:26:15;99865.19;;;19.32;38.25
56630;BME280;42502;40.732;-74.254;2023-01-01T08:28:17;99877.69;;;19.35;38.28
56630;BME280;42502;40.732;-74.254;2023-01-01T08:30:17;99876.88;;;19.34;38.15
56630;BME280;42502;40.732;-74.254;2023-01-01T08:32:21;99867.63;;;19.34;38.31
56630;BME280;42502;40.732;-74.254;2023-01-01T08:34:22;99875.25;;;19.33;38.30
56630;BME280;42502;40.732;-74.254;2023-01-01T08:36:23;99882.84;;;19.33;38.23
56630;BME280;42502;40.732;-74.254;2023-01-01T08:38:25;99889.25;;;19.33;38.24
56630;BME280;42502;40.732;-74.254;2023-01-01T08:40:26;99891.25;;;19.33;38.19
56630;BME280;42502;40.732;-74.254;2023-01-01T08:42:29;99897.22;;;19.31;38.26
56630;BME280;42502;40.732;-74.254;2023-01-01T08:44:30;99894.41;;;19.31;38.17
56630;BME280;42502;40.732;-74.254;2023-01-01T08:46:33;99890.34;;;19.29;38.21
56630;BME280;42502;40.732;-74.254;2023-01-01T08:48:34;99884.75;;;19.29;38.47
56630;BME280;42502;40.732;-74.254;2023-01-01T08:50:38;99882.75;;;19.29;38.23
56630;BME280;42502;40.732;-74.254;2023-01-01T08:52:39;99878.22;;;19.25;38.18
56630;BME280;42502;40.732;-74.254;2023-01-01T08:54:39;99894.41;;;19.31;38.26
56630;BME280;42502;40.732;-74.254;2023-01-01T08:56:40;99893.88;;;19.26;38.30
56630;BME280;42502;40.732;-74.254;2023-01-01T08:58:41;99894.31;;;19.28;38.12
56630;BME280;42502;40.732;-74.254;2023-01-01T09:00:43;99890.28;;;19.25;38.14
56630;BME280;42502;40.732;-74.254;2023-01-01T09:02:43;99889.53;;;19.28;38.20
56630;BME280;42502;40.732;-74.254;2023-01-01T09:04:47;99889.44;;;19.25;38.23
56630;BME280;42502;40.732;-74.254;2023-01-01T09:06:48;99891.50;;;19.28;38.25
56630;BME280;42502;40.732;-74.254;2023-01-01T09:08:48;99891.50;;;19.28;38.14
56630;BME280;42502;40.732;-74.254;2023-01-01T09:10:58;99886.28;;;19.26;38.34
56630;BME280;42502;40.732;-74.254;2023-01-01T09:13:00;99879.50;;;19.27;38.34
56630;BME280;42502;40.732;-74.254;2023-01-01T09:15:00;99884.94;;;19.20;38.48
56630;BME280;42502;40.732;-74.254;2023-01-01T09:17:04;99894.66;;;19.26;38.19
56630;BME280;42502;40.732;-74.254;2023-01-01T09:19:05;99898.19;;;19.23;38.11
56630;BME280;42502;40.732;-74.254;2023-01-01T09:21:06;99897.47;;;19.26;38.46
56630;BME280;42502;40.732;-74.254;2023-01-01T09:23:10;99897.75;;;19.21;38.07
56630;BME280;42502;40.732;-74.254;2023-01-01T09:25:11;99899.03;;;19.24;38.17
56630;BME280;42502;40.732;-74.254;2023-01-01T09:27:12;99909.88;;;19.25;38.28
56630;BME280;42502;40.732;-74.254;2023-01-01T09:29:13;99899.84;;;19.24;38.19
56630;BME280;42502;40.732;-74.254;2023-01-01T09:31:19;99901.38;;;19.22;38.30
56630;BME280;42502;40.732;-74.254;2023-01-01T09:33:20;99895.03;;;19.25;38.36
56630;BME280;42502;40.732;-74.254;2023-01-01T09:35:24;99899.03;;;19.24;38.36
56630;BME280;42502;40.732;-74.254;2023-01-01T09:37:26;99896.84;;;19.17;38.13
56630;BME280;42502;40.732;-74.254;2023-01-01T09:39:27;99908.50;;;19.19;38.16
56630;BME280;42502;40.732;-74.254;2023-01-01T09:46:07;99917.72;;;19.20;38.32
56630;BME280;42502;40.732;-74.254;2023-01-01T09:48:12;99929.38;;;19.22;38.32
56630;BME280;42502;40.732;-74.254;2023-01-01T09:50:20;99936.97;;;19.21;38.16
56630;BME280;42502;40.732;-74.254;2023-01-01T09:52:21;99926.50;;;19.18;38.12
56630;BME280;42502;40.732;-74.254;2023-01-01T09:54:35;99929.72;;;19.20;38.23
56630;BME280;42502;40.732;-74.254;2023-01-01T09:56:39;99940.94;;;19.20;38.29
56630;BME280;42502;40.732;-74.254;2023-01-01T09:58:42;99935.31;;;19.20;38.24
56630;BME280;42502;40.732;-74.254;2023-01-01T10:00:45;99930.09;;;19.18;38.05
56630;BME280;42502;40.732;-74.254;2023-01-01T10:07:55;99946.09;;;19.18;38.40
56630;BME280;42502;40.732;-74.254;2023-01-01T10:12:35;99938.66;;;19.10;38.33
56630;BME280;42502;40.732;-74.254;2023-01-01T10:14:45;99947.19;;;19.13;38.12
56630;BME280;42502;40.732;-74.254;2023-01-01T10:16:55;99949.16;;;19.13;38.13
56630;BME280;42502;40.732;-74.254;2023-01-01T10:19:00;99964.41;;;19.15;38.03
56630;BME280;42502;40.732;-74.254;2023-01-01T10:21:22;99967.94;;;19.12;38.17
56630;BME280;42502;40.732;-74.254;2023-01-01T10:23:32;99973.19;;;19.14;38.14
56630;BME280;42502;40.732;-74.254;2023-01-01T10:25:34;99974.81;;;19.15;38.29
56630;BME280;42502;40.732;-74.254;2023-01-01T10:27:44;99971.81;;;19.08;38.17
56630;BME280;42502;40.732;-74.254;2023-01-01T10:29:49;99989.19;;;19.13;38.18
56630;BME280;42502;40.732;-74.254;2023-01-01T10:31:51;99987.09;;;19.10;38.19
56630;BME280;42502;40.732;-74.254;2023-01-01T10:33:54;99986.25;;;19.10;37.99
56630;BME280;42502;40.732;-74.254;2023-01-01T10:35:55;100000.72;;;19.12;38.29
56630;BME280;42502;40.732;-74.254;2023-01-01T10:38:01;100001.81;;;19.07;38.07
56630;BME280;42502;40.732;-74.254;2023-01-01T10:40:21;100005.88;;;19.10;38.14
56630;BME280;42502;40.732;-74.254;2023-01-01T10:42:25;100005.41;;;19.08;38.25
56630;BME280;42502;40.732;-74.254;2023-01-01T10:44:31;100011.47;;;19.10;38.01
56630;BME280;42502;40.732;-74.254;2023-01-01T10:46:34;100012.19;;;19.07;38.03
56630;BME280;42502;40.732;-74.254;2023-01-01T10:48:36;100013.19;;;18.98;38.08
56630;BME280;42502;40.732;-74.254;2023-01-01T10:51:01;100035.41;;;19.07;38.21
56630;BME280;42502;40.732;-74.254;2023-01-01T10:53:02;100033.84;;;19.10;38.07
56630;BME280;42502;40.732;-74.254;2023-01-01T10:55:04;100035.84;;;19.09;38.14
56630;BME280;42502;40.732;-74.254;2023-01-01T10:57:14;100042.97;;;19.07;37.98
56630;BME280;42502;40.732;-74.254;2023-01-01T10:59:34;100042.09;;;19.03;38.20
56630;BME280;42502;40.732;-74.254;2023-01-01T11:01:35;100043.34;;;19.05;38.18
56630;BME280;42502;40.732;-74.254;2023-01-01T11:03:36;100049.41;;;19.07;38.17
56630;BME280;42502;40.732;-74.254;2023-01-01T11:05:37;100060.97;;;19.06;38.13
56630;BME280;42502;40.732;-74.254;2023-01-01T11:07:40;100063.75;;;19.06;38.06
56630;BME280;42502;40.732;-74.254;2023-01-01T11:09:47;100069.38;;;19.06;38.01
56630;BME280;42502;40.732;-74.254;2023-01-01T11:12:15;100060.50;;;19.04;38.03
56630;BME280;42502;40.732;-74.254;2023-01-01T11:14:33;100058.41;;;19.00;38.06
56630;BME280;42502;40.732;-74.254;2023-01-01T11:16:38;100076.94;;;19.05;38.04
56630;BME280;42502;40.732;-74.254;2023-01-01T11:18:39;100076.13;;;19.05;38.11